Member area
Imprimable
Challenges > Delhalle - Chimay, 16/04/2016, BEL - Jogging De La Principauté De Chimay
List of reports > Delhalle - 14,3 km - Result
Search: Page: [1] 2
590 Entries
 
Complains are not accepted anymore. Results are final.
Category
PosNrNameAgeNATLeagueTeamRealTimeTkmMoy.PlaceNameScrPtsCity
1.4881DIAZ RODRIGUEZ ALEXANDER37BEL50:4350:433:33 16.921sen11142
2.371PHILIPPE JEROME43BELURBANTRITEAM53:0153:013:43 16.191ve121101HOEILAART
3.925ROELS JONAS33BELLATWATERMOLEN SP53:5253:523:47 15.932sen31087HAMME
4.4818LABROCHE DAMIEN35FRAAS SOMMER54:0854:083:48 15.853sen41082
5.4196DENEFFE GUILLAUME33BELSMACTRAKKS/RCNAMUR54:3054:303:49 15.744sen51076NAMUR
6.4083MOUCHET STÉPHANE42BELACCOJACO55:4855:483:55 15.382ve161054LOMPRET
7.4810MOURMAUX LAURENT43BELUACESM56:1456:143:56 15.263ve171046
8.238VAN DEN ABEELE SEBASTIAN46BELACLOJOGGPLUS56:2256:223:57 15.224ve181044CARNIERES
9.4109BERNARD LAURENT42FRAESACA FOURMIES56:3656:363:58 15.165ve191040FOURMIES
10.4945LEVACQ CORENTIN35BELACCOCTA / LDLV56:4156:413:58 15.145sen101038DOURBES
11.4185LEBLANC RENAUD31BELJACO57:3057:304:02 14.926sen111025VILLERS LA TOUR
12.4883PASQUE CEDRIC37BELLES BOUFFIOLS57:5257:524:03 14.837sen121019
13.913BOUGHRAD MOHAMED36BELCSFKALENJI TEAM58:5658:564:08 14.568sen131002BRUXELLES
14.594BOSSANT JEAN-FRANCOIS41BELFER59:1559:154:09 14.486ve114997VELLEREILLE-LE-SEC
15.4035RENARD YVES50BELCHIMAY TRAIL AVENTUR59:1359:214:10 14.461ve215997PESCHES-COUVIN
16.4901BAU GEOFFROY38FRAGRAC HARCY MOUDING ZOWE59:2759:314:10 14.429sen16993
17.4806CAVYN JEAN-PHILIPPE48BELVERTIGO59:3859:394:11 14.387ve117990
18.4065HAUTIER GUILLAUME38FRA59:3959:414:11 14.3810sen18989BITCHE
19.175DENIS PATRICK50BELARCH59:4259:424:11 14.372ve219988BERTRIX
20.524CHARLIER ALAIN46BELSMAC59:5059:504:11 14.348ve120986BOUGE
21.825PACQUET DOMINIQUE51BELACLO59:5659:564:12 14.323ve221984MERBES-SAINTE-MARIE
22.4998RUTTEN TOM21BEL59:5259:584:12 14.3111sen22985
23.4781HOWET VINCENT52BELARCH59:5859:594:12 14.314ve223982
24.4062DUPUIS THOMAS32BELESMESM1:00:251:00:254:14 14.2012sen24975MONTIGNY LE TILLEUL
25.990PAQUES THIERRY50BELJOGGPLUS1:00:281:00:284:14 14.195ve225974BEAUFAYS
26.44LELIEVRE THIERRY44BELJOGGANS1:00:461:00:474:16 14.129ve126969JETTE
27.4189THOMAS DOMINIC55BELACCO1:00:481:00:484:16 14.126ve227969
28.387BOSKIN BERNARD28BELLES IDYLLES1:00:451:00:484:16 14.1213sen28968STAVELOT
29.4889DESTRES ALEXANDRE25FRAESA591:00:501:00:504:16 14.1114sen29967
30.4796LESOIL MATHIAS23BELESM1:00:571:00:574:16 14.0815sen30965
31.712LORENT XAVIER35BELBOUFFIOLS1:01:131:01:134:17 14.0216sen31961BOUFFIOULX
32.4910DETRAIT HUGUES28BELACCO1:01:161:01:224:18 13.9817sen32959
33.4991MAHIA SEBASTIEN30BELBOUFFIOLS1:01:241:01:244:18 13.9818sen33957JAMBES
34.4826REGNIER PIERRE40BEL1:01:381:01:384:19 13.9210ve134953
35.4089VAN NIEUWENHOVE TANGUY22BELJACO1:01:361:01:404:19 13.9119sen35954SIVRY
36.420CAUDRON DAVID49BELJACO1:01:581:02:014:21 13.8411ve136948FLENU
37.219KOLP VINCENT29BEL1:02:151:02:154:22 13.7920sen37943IXELLES
38.4840PELTIER CHRISTOPHE36FRA1:02:171:02:174:22 13.7821sen38942
39.4872RENARD BRUNO47BELCPMV1:02:161:02:194:22 13.7712ve139942HAM-SUR-HEURE-NALINNES
40.4110BAILLY NICOLAS42FRACA FOURMIES1:02:581:02:584:25 13.6313ve140932FOURMIES
41.4076LUST ERIC50BELLA THURE1:03:131:03:144:26 13.577ve241928
42.4096IANIRO BAPTISTO25BELACCO1:03:121:03:174:26 13.5622sen42927
43.230SANCHEZ POSADA LUIS56BELUSBWCACE1:03:201:03:234:26 13.548ve243925RHODE SAINT GENESE
44.4815TENAERTS THOMAS17BELJACCO1:03:161:03:244:26 13.541esp44926
45.181LABBÉ JEAN-MARIE56BEL1:03:251:03:274:27 13.539ve245923EGHEZÉE
46.4236PERPETE JACKY56BELRCNAMUR1:03:281:03:304:27 13.5110ve246922TEMPLOUX
47.4115HARDY MICHAEL44BELTHURE1:03:301:03:314:27 13.5114ve147921BEAUMONT
48.699NOUAMANI MOHAMMED45BELJOGGANS1:03:351:03:354:27 13.5015ve148920GANSHOREN
49.4978CARION GAUTHIER38BELMADRES1:03:411:03:414:28 13.4823sen49918
50.291DE VOS DAVID35BELOCAN1:03:461:03:464:28 13.4624sen50916THON-SAMSON
51.851BAIJOT PHILIPPE50BELJCCS1:03:471:03:484:28 13.4511ve251916GEDINNE
52.4778DOS SANTOS NEIVA SERGIO43BELARCHARCH1:03:531:03:534:29 13.4316ve152914
53.4212RENARD LUC52BELSHARKS1:03:591:04:044:29 13.4012ve253912
54.4213LEGRAND STÉPHANE47FRACA FOURMIES1:04:061:04:064:29 13.3917ve154910FOURMIES
55.4890BASTIEN OLIVIER28BELBIKERS ASBL1:04:121:04:144:30 13.3625sen55908
56.4835DIVRY LAURENT42FRAFFACAF FOURMIES1:04:191:04:194:30 13.3418ve156906
57.850VAN DEN BERGH ALAIN54BEL1:04:211:04:224:31 13.3313ve257905COURCELLES
58.4452NAVEAU MAXIME32BELJACO1:04:261:04:304:31 13.3126sen58904FORGES
59.4156ALCESILAS NICOLAS36FRAESACA FOURMIES1:04:481:04:484:32 13.2427sen59898FOURMIES
60.4932ERNOTTE YVERICK21BEL1:05:081:05:144:34 13.1528sen61893
61.4032POUCET ANTOINE34BEL1:05:101:05:154:34 13.1529sen62892CHIMAY
62.983CULLOP PAUL55BELENJAMBEE1:05:191:05:204:35 13.1314ve263889BRUXELLES
63.4807GUEUNING BENOIT36BELTAF1:05:201:05:334:35 13.0930sen64889
64.292BLONDEAUX YANNICK40BEL1:05:301:05:374:36 13.0819ve165886THY-LE-CHÂTEAU
65.4783ENGLEBERT JEAN-FRANCOIS36BEL1:05:351:05:414:36 13.0631sen66884
66.4143MARTIN LIONNEL37FRAROUVROY SPORTS1:05:391:05:444:36 13.0532sen67883
67.167GOBATTO MARIO38BELHFHAUTE-FAGNE1:05:521:05:564:37 13.0233sen68880PEPINSTER
68.4777VAN MALLEGHEM BERNARD52BELPRFM1:05:571:05:574:37 13.0115ve269878
69.4886LIPPOLIS DOMINIQUE44BEL1:06:021:06:044:38 12.9920ve170877
70.4825DAUSSY EMERIC34FRAFRANCECSCV HIRSON1:06:021:06:084:38 12.9834sen71877
71.4428MASSON CHRISTOPHE31BELSHARKS TRIATHLON1:06:071:06:114:38 12.9735sen72875WÉPION
72.4787DEVILLERS GILLES31BELCODAGEX1:06:111:06:124:38 12.9636sen73873
73.956BARTOSZUK ROMAN42BEL1:06:091:06:144:38 12.9521ve175873ZAVENTEM
74.4179ARDOISE FRÉDÉRIC43FRACA FOURMIES1:06:101:06:184:39 12.9422ve176872ANOR
75.4808BENOIT THIBAULT32BELCHIMAY TRAIL AVENTURE1:06:141:06:194:39 12.9437sen77871VIRELLES
76.677PAULUS PHILIPPE55BELESM1:06:191:06:244:39 12.9216ve278870MONT-SUR-MARCHIENNE
77.556RATINCKX JEAN-PHILIPPE28BELRIWA1:06:171:06:294:39 12.9138sen79870OTTIGNIES
78.858POTTIEZ PHILIPPE52BELVERTIGO1:06:371:06:444:40 12.8617ve280865MONS
79.21TOUSSAINT FRANK50BELSCBUT1:06:471:06:474:41 12.8518ve281862SOURBRODT
80.313BELMILOUD MOHAMED66BELGRAC1:06:511:06:544:41 12.831ve382861COUVIN
81.4069GOCHARD MANU50BELPFA1:07:011:07:024:42 12.8019ve283858LANEFFE
82.4042CATOIR BERTRAND39BELESMESM1:06:411:07:034:42 12.8039sen85862THUILLIES
83.4967PLICHON ANTOINE25BELESMESM1:06:371:07:094:42 12.7840sen86862
84.4775MORTIER PIERRE48BELLA THURE1:07:031:07:114:42 12.7723ve187856
85.264SCAILLET VINCENT47BELHASTRAIL1:07:051:07:144:43 12.7624ve188855HEER SUR MEUSE
86.702GIOVANNANGELO ALAIN64BELESM1:07:201:07:204:43 12.742ve389852NIVELLES
87.4819LIBOIS JOACHIM20BELRCNAMUR1:07:121:07:244:43 12.7341sen90853
88.4165GEORGES LAURENT50BELJACO1:07:171:07:254:43 12.7320ve291851ROBECHIES
89.4442JONCKHEER FRED24BEL1:06:581:07:304:44 12.7142sen92855MONT.SUR.MARCHIENNE
90.117CERQUEIRA BARTOLOMEU40BEL1:07:191:07:324:44 12.7125ve194850PROFONDEVILLE
91.714MAILIER CHRISTIAN60BELCRACESM1:07:311:07:374:44 12.693ve395846ROUX
92.4456DUMOULIN SEBASTIEN42BEL1:07:351:07:394:44 12.6826ve196845FORGES
93.690LUPCIN PATRICK59BELRCNAMUR1:07:421:07:454:45 12.6721ve297843PERWEZ
94.976MARCHAL ANDRE60BELHF1:07:411:07:454:45 12.664ve398843VERVIERS
95.4081POUCET FABRICE37BELACCO1:07:491:07:494:45 12.6543sen99841PETIGNY
96.228MARCHAL YVES46BELRUNNING WILD1:07:551:07:554:45 12.6427ve1100839VEDRIN
97.78DUTRIEUX FERNAND45BEL1:07:571:07:574:46 12.6328ve1101838BAUDOUR
98.463DEMIN MICHEL48BELTEAM MARCEL1:08:081:08:114:47 12.5829ve1103835SOVET
99.4894COLAS SEBASTIEN29FRAROCROY SPORTS NATURE1:08:091:08:144:47 12.5844sen104834
100.290BALLEUX CHRISTOPHE40BELZATOPEK NAMUR1:08:071:08:164:47 12.5730ve1105834BOIS-DE-VILLERS
101.4487BAILLY JEOFFREY38BELCCSTC1:08:201:08:334:48 12.5245sen106831SELOIGNES
102.4105CORDEWENER ALAIN56BELAC FRONTIÈRES1:08:291:08:364:48 12.5122ve2107829
103.4252COUNEN OLIVIER42BELCHIMAY TRAIL AVENTURE1:07:431:08:414:49 12.4931ve1108839LOMPRET
104.4809LELEUX JULIEN30BELCHIMAY TRAIL AVENTURE1:08:511:08:564:50 12.4546sen109823
105.4426PUISSANT SIMON30BELCHIMAY TRAIL AVENTURE1:08:511:08:574:50 12.4547sen110823CHIMAY
106.4855MANDERLIER ERIC56BELESMESM1:08:431:09:004:50 12.4423ve2111824JUMET (CHARLEROI)
107.74BROUWIER PIERRE64BELHERV1:09:031:09:084:51 12.415ve3112819GRAND RECHAIN
108.4108PAQUET OLIVIER40BELJACO1:09:001:09:124:51 12.4032ve1113820COUVIN
109.4034NAVEAU SÉBASTIEN33BEL1:09:071:09:164:51 12.3948sen114818
110.30HANNOTTE CHRISTOPHE43BELRUNNING FERNELMONT1:09:161:09:264:52 12.3633ve1115815NOVILLE-LES-BOIS
111.58HENRY ANDRE56BELRCB1:09:341:09:364:52 12.3324ve2116811LA HULPE
112.889LECRENIER BENJAMIN32BELFLEU1:09:291:09:364:53 12.3349sen117812FRANIERE
113.4187VAN GHELUWE RÉMI36FRAJACOJACO1:09:371:09:374:53 12.3350sen118810LA NEUVILLE AUX JOUTES
114.294HASSOUTE EL MOUSTAFA50BELCSFMYSTERE1:09:241:09:374:53 12.3325ve2119812FOREST
115.4902MAZY CLEMENT31FRAGRAC RENWEZ1:09:331:09:384:53 12.3251sen120809
116.265BOONEN CHRIS45BELAVN1:09:351:09:444:53 12.3034ve1121809MEER
117.4788GUY PIERRE64FRAAC FRONTIÈRES1:09:421:09:564:54 12.276ve3123807
118.566DE MARCHI NICO56BEL1:09:541:09:574:54 12.2726ve2124804LIEGE
119.4795AMANT BERTRAND33BELLA THURLA THURE1:09:491:09:584:54 12.2752sen125804
120.4200RARY EMERIC29BELJCHSHJCHSH1:09:561:09:584:54 12.2653sen126802GOZÉE
121.4757VANDEGHINSTE GRÉGOIRE17BELESMESM1:09:491:10:014:54 12.262esp127804
122.4137SOBRY MATHIEU32BELJACO1:10:021:10:024:54 12.2554sen128800CHIMAY
123.4231DAMOISAUX PASCAL51BELRCNAMUR1:09:551:10:054:54 12.2527ve2129801BELGRADE
124.4929BERNARD STEPHANE35FRA1:09:571:10:134:55 12.2255sen131800
125.4905NAERT FRANCK51BELHCO1:10:181:10:184:55 12.2128ve2132795
126.4207GRUMIAUX LUCAS17BELJACO1:09:581:10:204:56 12.203esp133799BAILIEVRE
127.938POMILIO NICOLA46BELSPIBO1:10:181:10:234:56 12.1935ve1134794QUAREGNON
128.4478BELLENGER BRUNO46BELJTRR1:10:031:10:284:56 12.1836ve1135797COUVIN
129.4954JENNEQUIN MAXIME26BELFC BOOSSU1:10:181:10:374:57 12.1556sen136794
130.4180MAERSCHALCKE PHILIPPE45BELJCHSHJCHSH1:10:171:10:434:57 12.1337ve1138793HAM-SUR-HEURE
131.4157LEROY JEAN-PIERRE45BELACCO1:10:521:10:524:58 12.1138ve1140785
132.4124WILMART SÉBASTIEN31BELJACO1:10:451:10:524:58 12.1157sen141786MONCEAU-IMBRECHIES
133.425DE GRAVE OLIVIER51BELCSFMYSTERE1:10:491:11:014:58 12.0829ve2143784UCCLE
134.4161GUILLAUME SÉBASTIEN22BELJACO1:11:031:11:074:59 12.0758sen144781BAILEUX
135.4243DE VRIENDT JEFFRY34BELRCN1:11:011:11:074:59 12.0759sen145781
136.4163PIACENTINI MARCO60ITAESM1:11:151:11:205:00 12.037ve3146777GOZEE
137.4227FICHET LAURENT43BELJACO1:11:231:11:235:00 12.0239ve1147775BAILEUX
138.4128BAÏOLET MAXIME27BELSHARKS TRIATHLON1:11:251:11:295:00 12.0160sen148774SELOIGNES
139.4194LIBERT OLIVIER43BELCCSTC1:11:281:11:345:01 11.9940ve1149773SELOIGNES
140.146VAN NEVEL FRANS62BELBEHO1:11:321:11:375:01 11.988ve3150772BRUGGE
141.236DUYCK XAVIER49BEL1:11:361:11:425:01 11.9741ve1152771SPY
142.876GODFROID YVES49BELUSBWMYSTERE1:11:381:11:465:02 11.9642ve1153770WATERLOO
143.465BOSKIN JEAN-CLAUDE61BELLES IDYLLES1:11:401:11:505:02 11.959ve3154769STAVELOT
144.4773BOUILLET NICOLAS37BEL1:11:481:11:545:02 11.9361sen155767
145.4490DEDONCKER DAMIEN42BELJACO1:11:531:12:055:03 11.9043ve1156765VILLERS LA TOUR
146.986BIERNAUX BENOIT55BELRCNAMUR1:12:031:12:145:04 11.8830ve2157763NAMUR
147.4885DEBORTOLI NICOLAS27BEL1:11:471:12:165:04 11.8762sen158766
148.748SALAZAR NOEL43BEL1:12:061:12:175:04 11.8744ve1159761SINT-JANS-MOLENBEEK
149.4858LAMBIN JEAN-LUC52BELLA THURE1:12:181:12:265:04 11.8531ve2161758SIVRY
150.4843ROUSSELLE JOËL64BELLES MOTIVES DE METTET1:12:271:12:295:05 11.8410ve3162756FALISOLLE
151.765MATERNE DANIEL58BELUSBWMYSTERE1:12:291:12:345:05 11.8232ve2163755BRAINE-L'ALLEUD
152.68MASURE ALEXANDRE46BELRCNAMUR1:12:431:12:545:06 11.7745ve1165751LEUZE
153.4470BRICHARD GILLES56FRA1:12:501:12:575:07 11.7633ve2166749BEAULIEU LES FONTAINES
154.4785PETRISOT PHILIPPE54BEL1:13:111:13:115:08 11.7334ve2167745
155.4789QUEVAUVILLERS NICOLAS35BEL1:13:021:13:195:08 11.7063sen168746
156.658DECAMPS ERIC49BELESM1:13:211:13:265:09 11.6846ve1169742GOZEE
157.4264BEDORET GEOFFREY30BEL1:13:051:13:345:09 11.6664sen170745
158.128BAURIN HERVE51BEL1:13:291:13:375:09 11.6635ve2171739AGIMONT
159.4160GUILLAUME JULIEN24BELJACO1:13:481:13:525:10 11.6265sen172735BAILEUX
160.955TOUSSAINT XAVIER36BEL1:13:481:14:005:11 11.6066sen173735ANDERLUES
161.4030CORDEWENER PATRICE52BELAC FRONTIÈRES1:13:461:14:005:11 11.6036ve2174735
162.531ANTENUCCI MAURO59BELESM1:14:001:14:065:11 11.5837ve2175731GOSSELIES
163.4223BAILLY KARL42BELJACOJACO1:14:061:14:065:11 11.5847ve1176730CHIMAY
164.70LECLERCQ CEDRIC37BEL1:13:521:14:085:12 11.5767sen177732LIERNU
165.4159GUILLAUME YVES50BELJACO1:13:591:14:105:12 11.5738ve2178730BAILEUX
166.4859JORISSEN PHILIPPE50BEL1:13:511:14:105:12 11.5739ve2179732
167.32JACQUEMIN PATRICK51BEL1:13:571:14:115:12 11.5740ve2180730HANNUT
168.4800DAMBOIS THIERRY47BELUAC1:13:581:14:195:12 11.5548ve1182729
169.4873DEKNOP BENOIT46BELJCHSH1:14:191:14:205:12 11.5449ve1183724JAMIOULX
170.308DEVALERIOLA PATRICK52BELPROVINCE NAMUR1:14:061:14:205:12 11.5441ve2184727SUARLEE
171.429DENEFFE PHILIPPE55BELJCHOUYET1:14:011:14:225:13 11.5442ve2185727HOUYET
172.22DE MASI GIANNI63BELFLEU1:14:201:14:235:13 11.5411ve3186723WANFERCEE BAULET
173.404TILBURGS FRANK49BELAVN1:14:211:14:325:13 11.5150ve1187722MEER
174.4224BAZEN ELTJO38NLD1:14:341:14:355:13 11.5068sen188719NIJMEGEN
175.4041GUIOT PASCAL46BELSHARKS TRIATHLON1:14:081:14:385:14 11.5051ve1189724CHIMAY
176.4799BADIN DIRK40BELJC ESTINNES1:14:401:14:415:14 11.4952ve1190718
177.4804DEMINNE THIERRY56BELJC ESTINNES1:14:391:14:415:14 11.4943ve2191717ERQUELINNES
178.4865HERMANT THIBAUT17BEL1:14:261:14:435:14 11.484esp192719
179.4038DUBOIS SYLVAIN41FRA1:14:441:14:465:14 11.4853ve1193715VENDEGIES SUR ECAILLON
180.4121TRULLEMANS ALAIN59BELRCNAMUR1:13:551:14:465:14 11.4844ve2194725BEEZ
181.695DE DAPPER DAVID43BELCSFMYSTERE1:14:481:14:495:14 11.4754ve1195714BRUXELLES
182.4816FONTAINE JONATHAN31FRA1:14:441:14:535:15 11.4669sen196714
183.4962MASSART FRÉDÉRIC39BELFLEU1:14:261:14:555:15 11.4570sen197717BRYE
184.4188PUYLAERT DOMINIQUE52BELRCNAMUR1:14:571:14:575:15 11.4545ve2198711JAMBES
185.841SALVATO DOMENICO53ITACSFMYSTERE1:14:551:14:585:15 11.4546ve2199711BRUXELLES
186.4484HENRARD ETIENNE57BELAC FRONTIÈRES1:14:431:14:595:15 11.4447ve2200712BAILEUX
187.148HALLEUX JEAN-MARIE46BELHERVL AVENIR1:14:501:15:035:15 11.4355ve1201711HERVE
188.4118DUJARDIN SAMUEL29BELJTRR1:15:021:15:225:17 11.3971sen203708COUVIN
189.75ADANS JULIEN31BELMYSTERE1:15:161:15:235:17 11.3872sen204704LEUZE
190.4990COULON RUDDY54BEL1:15:111:15:335:17 11.3648ve2205705CLERMONT
191.4158GUERREAU MAURICE53BELSHARKS1:15:491:15:495:19 11.3249ve2206697
192.4868PRÈVE SAMUEL42BEL1:14:591:15:505:19 11.3256ve1207707BEAURAING
193.4192MERSCH SEBASTIEN39BEL1:15:271:15:515:19 11.3173sen208701STREE
194.4191MERSCH JULIEN33BEL1:15:281:15:525:19 11.3174sen209700MARBAIX LA TOUR
195.4475REICHLING JEAN-MARC55BELSHARKS1:15:441:15:545:19 11.3150ve2210696COUVIN
196.4064HAINAUT JEAN-BAPTISTE31BEL1:15:301:15:565:19 11.3075sen211699NAMUR
197.4095MAHY JEAN-LUC49BELJACO1:15:581:15:585:19 11.3057ve1212693BAILEUX
198.4144COENE MARC52BELJACO1:15:351:15:595:19 11.2951ve2213697CHIMAY
199.332HANNARD KEVIN33BEL1:15:531:16:045:20 11.2876sen214693AUVELAIS
200.991DE HERTOG PHILIPPE46BELGRIMAFRIT 71:15:461:16:125:20 11.2658ve1215694WETTEREN
201.4174TERMES COR61NLDAVC1:15:561:16:155:20 11.2512ve3216692LIMMEN
202.848DEVIERE MICHEL53BELFORESTIERE1:16:241:16:365:22 11.2052ve2219685MONS
203.4864FROIDBISE JEAN - LUC55BELFOULÉES DU PLAISIR1:16:151:16:395:22 11.1953ve2220686
204.4215NUTELET CARLOS62BELS'CASSENES RUNNERS1:16:011:16:455:22 11.1813ve3221689ECAUSSINNES
205.4130DE PESTEL HERVÉ54BEL1:16:431:16:525:23 11.1654ve2222680
206.4443LEROY LUC48BELJACO1:16:311:16:535:23 11.1659ve1223682VIRELLES
207.4419COENE FRÉDÉRIC42BEL1:16:381:16:535:23 11.1660ve1224680MOMIGNIES
208.194AUBERT SERGE61BEL1:16:401:16:545:23 11.1614ve3225680GERPINNES
209.4413SCOUBEAU OLIVIER53BELH.A.C.1:16:501:17:015:24 11.1455ve2226677SPIENNES
210.4414HALBRECQ BERTRAND42BEL1:16:501:17:015:24 11.1461ve1227676BIERCÉE
211.4915DAUCHOT MICHEL50BELLA FORESTIERE1:16:301:17:035:24 11.1456ve2228680
212.337DAMSTEN THIERRY52BEL1:16:461:17:035:24 11.1457ve2229676ROSIERES
213.4770DUPONT ERIC54BELHARNES1:16:091:17:045:24 11.1358ve2230683
214.4867ALARDAIN CHRISTOPHE36FRAROCROY SPORTS NATURE1:17:011:17:085:24 11.1277sen231673RENWEZ
215.4153FRAHTIA MADANI50BELACCOACCO1:17:081:17:085:24 11.1259ve2232671PETIGNY
216.4422FALISE VALENTIN27BEL1:17:211:17:265:25 11.0878sen233668VIRELLES(CHIMAY)
217.4229HOUGARDY BENOÎT52BELRCNAMUR1:17:151:17:295:26 11.0760ve2234669SUARLEE
218.4973CORDEWENER LAURENT47BELAC FRONTIÈRES1:17:161:17:305:26 11.0762ve1235668
219.4211WATTIN MICKAEL37BELJCM1:17:131:17:335:26 11.0779sen236668LEERNES
220.4895ALLOUCHI SOULIMED44BELUAC1:17:141:17:355:26 11.0663ve1237668
221.525PERVEUX OLIVIER38BELFORESTIERE1:17:351:17:355:26 11.0680sen238663MASNUY-SAINT-PIERRE
222.4255VAN HAUWE THIBAUT28BELBOUFFIOLS1:17:021:17:375:26 11.0681sen239669
223.4913HANTHAZI KEVIN24BEL1:17:111:17:395:26 11.0582sen240667FORGES
224.4397MATHIEU JEAN-POL54BELJCCS1:17:211:17:425:26 11.0461ve2241665RIENNE
225.4848LEFEVRE ARNAUD40FRA1:17:171:17:435:27 11.0464ve1242665
226.4768RAIMBEAUX ALDO27BELGRAC1:17:431:17:435:27 11.0483sen243660
227.535ROMBAUX MARC56BELCSDY1:17:381:17:475:27 11.0362ve2245660LOUVAIN LA NEUVE
228.886DEWOLF PHILIPPE65BELESM1:17:341:17:495:27 11.0315ve3246660MERBES SAINTE MARIE
229.4457VANDROMME DAVID34BEL1:17:411:17:505:27 11.0284sen247659ACOZ
230.4418BOULENGER EDOUARD36FRA1:16:571:17:505:27 11.0285sen248667AULNOYE-AYMERIES
231.4965ROSILLON DOMINIQUE59BELARCH1:17:251:17:545:27 11.0263ve2249661SOREE
232.4129BOURGUIGNON GUILLAUME30BEL1:17:401:17:555:27 11.0186sen250658VIRELLES
233.4907ROMAIN JEAN-FRANÇOIS45BELBOUFFIOLS1:17:561:17:565:27 11.0165ve1251654
234.193BARBE MICHEL36BEL1:17:231:17:565:27 11.0187sen252660BUZET
235.4183PONCELET JOSÉ66BELAC FRONTIÈRES1:17:411:17:565:27 11.0116ve3253656
236.4918VISEE BANJAMIN18BELJACO1:16:551:17:565:27 11.015esp254665
237.4029CORDEWENER JOËL41BELAC FRONTIÈRES1:17:431:17:575:28 11.0166ve1255655
238.4995BRUYNBROEK LOIC19BEL1:17:501:18:065:28 10.996esp257653
239.4436MARCHAL LUC52BEL1:17:541:18:095:28 10.9864ve2258652AUBLAIN
240.4972SIBILLE THIBAUD31BEL1:18:151:18:155:29 10.9788sen261646
241.4916LABENNE VINCENT44BEL1:18:101:18:265:30 10.9467ve1262647
242.4209BOURLARD MARC39BELJACO1:18:021:18:275:30 10.9489sen263648BAILEUX
243.4831VAN ASSEL TEDDY38FRA1:17:201:18:275:30 10.9490sen264656
244.4919BERTRAND BRUNO50BEL1:17:481:18:285:30 10.9365ve2265650
245.4797DE CLERCQ GUY57BEL1:17:511:18:295:30 10.9366ve2266649
246.4996LECUYER FRED45FRA/1:17:461:18:365:30 10.9268ve1267649LES MAZURES
247.4980DEMOULIN JOSE70BELBAIL RUN1:18:241:18:455:31 10.901ve4268642EVREHAILLES
248.4198DAOUST KEVIN33BEL1:18:041:18:475:31 10.8991sen270645DAOUSSOULX
249.696LECLEF SEBASTIEN36BELCSFMYSTERE1:18:471:18:515:31 10.8892sen271636FOREST
250.4244BERGER SEBASTIEN40FRACAFESA591:18:501:18:535:31 10.8869ve1272635FERON
251.517KOLP CHRISTIAN62BELET ENGHIEN1:18:501:18:565:32 10.8717ve3273635HORRUES
252.203ALBERT MICHEL55BELRCNAMUR1:18:501:18:575:32 10.8767ve2274634NAMECHE
253.4982BEAUTRIX LAURENT41BEL1:18:481:18:575:32 10.8770ve1275634MAUBEUGE
254.4031SOBRY SIMON29BELJACO1:18:421:18:585:32 10.8793sen276635CHIMAY
255.4039DEVENS THOMAS39BEL1:18:251:19:055:32 10.8594sen277638OVERPELT
256.4498BROUNS BART31NLD1:18:351:19:165:33 10.8395sen279635DEN HAAG
257.989PAQUES BENOIT25BELRFCLSAUCONY1:19:071:19:175:33 10.8296sen280628BEAUFAYS
258.4407WOLTÈCHE HERVÉ34BEL1:18:441:19:195:33 10.8297sen281632FLÉRON
259.4845MATHELART JULIEN30BEL1:19:091:19:215:33 10.8198sen282628COURT SAINT ETIENNE
260.4992THIBAUT VINCENT35BEL1:19:031:19:235:34 10.8199sen283628
261.4862STAS CHRISTIAN38BELRUNNING TEAM CONDROZ1:18:431:19:245:34 10.81100sen284632HUY
262.824GOBERT PASCAL44BEL1:18:541:19:285:34 10.8071ve1285629LEUZE
263.4182DUBOIS VINCENT47BELRCNAMUR1:18:401:19:315:34 10.7972ve1286631ASSESSE
264.969FRIPIAT DIDIER39BELRCNAMUR1:19:081:19:315:34 10.79101sen287626NATOYE
265.246VANTSIOTIS ANASTHASE63FRA1:19:191:19:325:34 10.7918ve3288623BARR
266.4044FOLIE CHRISTOPHER34BEL1:18:501:19:335:34 10.79102sen289628HAVRÉ
267.296DESSEILLE ERNEST62BELRCNAMUR1:19:071:19:365:34 10.7819ve3290625WEPION
268.4493TOSOLINI LUC27FRAJOGGING CLUB HARNES1:18:481:19:425:35 10.77103sen291628ECLAIBES
269.4417DESMAREZ ETIENNE43FRA1:19:381:19:455:35 10.7673ve1292618OBRECHIES
270.4909LESCEUX JOSE47BEL1:19:351:19:455:35 10.7674ve1293618
271.653SERON BENOIT55BEL1:19:451:19:485:35 10.7568ve2294616MALONNE
272.4952TORRES RICARDO42ITABOUFFIOLS1:19:151:19:505:35 10.7575ve1295621GERPINNES
273.4964DUMONT DENIS51BEL1:19:381:19:585:36 10.7369ve2296616
274.580HOMBROUX MARCEL63BELHANNUT JOG1:19:381:20:015:36 10.7220ve3297616MONTENAKEN
275.386SIMONS RUDY46BEL1:19:551:20:055:36 10.7276ve1298612LOENHOUT
276.4453FRANCOTTE FLORIAN23BELMOMINOISE1:20:111:20:115:37 10.70104sen299609CHIMAY
277.4989WICHT RUDY38BEL1:19:521:20:125:37 10.70105sen300612
278.4201RARY JEAN-MARC54BEL1:20:081:20:155:37 10.6970ve2302608GOZÉE
279.4904FERNANDEZ-VERA ANTONIO50BELUAC1:19:541:20:175:37 10.6971ve2303610CHATELINEAU
280.4094GILLARD JEAN_PIERRE49BELJACO1:19:561:20:225:38 10.6877ve1304610BAILEUX
281.4216DEJONGHE CHRISTIAN60BELS'CASSENES RUNNERS1:19:531:20:255:38 10.6721ve3305609ECAUSSINNES
282.378WEYNAND HELMUT73BELSC BUTGENBACH1:20:261:20:365:39 10.652ve4306603KRINKELT
283.4099BORNIER DAVID34BEL1:20:231:20:435:39 10.63106sen307603MOMIGNIES
284.486CANIVET ROLAND69BELBOUFFIOLS1:20:321:20:465:39 10.6222ve3308601NALINNES
285.4999POLI ANTHONY26BEL1:20:241:20:475:39 10.62107sen309603
286.4856GIULIANI FERNANDO65BELBOUFFIOLS1:20:321:20:475:39 10.6223ve3310600CHATELET
287.4462LIBOIS OLIVIER47BELRCNAMUR1:20:351:20:475:39 10.6278ve1311599ANDENNE
288.4101NEYMAN PASCAL48BEL1:20:061:20:485:39 10.6279ve1312604SAINT-GÉRARD
289.4942BRISBOIS JEAN47BEL1:20:211:20:495:40 10.6280ve1313601
290.4769RICHE ALAIN49BEL1:20:221:20:545:40 10.6181ve1314601
291.426QUINET BERNARD64BELFLEU1:20:411:20:575:40 10.6024ve3315597GILLY
292.923CEULEMANS NICOLAS46BELANTILOB1:20:371:20:595:40 10.6082ve1316597INCOURT
293.4146TONDA SERGE71BELJACO1:21:041:21:045:41 10.583ve4317592HIRSON
294.4801BROUTIN ALEXANDRE32FRA1:20:481:21:085:41 10.58108sen318594
295.822LECERF JEAN LUC60BELJOGGANS1:20:561:21:135:41 10.5725ve3319592UCCLE
296.4784PETRISOT SEBASTIEN28BEL1:21:241:21:245:42 10.54109sen320587
297.544ROCHUS DAVID34BEL1:21:021:21:295:42 10.53110sen321590PIETRAIN
298.4822COLLERY BENOIT37FRA1:20:331:21:415:43 10.51111sen323595
299.4930LAMBERT MAXENCE37BEL1:21:301:21:475:44 10.49112sen325584
300.4497DELERS PASCAL53BELTHURE1:21:211:21:495:44 10.4972ve2327584CHIMAY
301.4933BEUGNIES NICOLAS34BEL1:21:401:21:595:44 10.47113sen328580
302.4140DE LAZZER GIAN-CLAUDIO51BELJC MONTAGNARD1:21:231:22:075:45 10.4573ve2329583LEERNES
303.4238BLOEDJES PETER60NLDAVC1:21:531:22:125:45 10.4426ve3330577CASTRICUM
304.4033POUCET BERNARD37BELJTRR1:22:261:22:265:46 10.41114sen332570DOURBES
305.4469COTELLE MICKAEL44FRA1:21:581:22:285:46 10.4183ve1333575ARRAS
306.26DRAMAIX SYLVAIN37BELSPIBO1:22:231:22:365:47 10.39115sen334570HERCHIES
307.261RIESTRA JOSE MANUEL46ESPMYSTERE1:22:221:22:425:47 10.3884ve1335570UCCLE
308.4947DELWART NICOLAS29BEL1:21:541:22:445:48 10.37116sen336574
309.4040VAN CAPPELLEN GIJS36BEL1:22:081:22:455:48 10.37117sen337572HULDENBERG
310.4960LECHAT XAVIER27BEL1:21:541:22:465:48 10.37118sen338574
311.77MEZIANI MOHAND49BELCSFMYSTERE1:22:341:22:555:48 10.3585ve1339566SAINT-GILLES
312.4499WIJNGAARDEN GUIDO44NLD1:22:301:22:555:48 10.3586ve1340567TELLIN
313.4776VERMASSEN MARCEL56BELESMESM1:23:061:23:125:50 10.3174ve2342559
314.388BUCHET FREDERIC44BELUSBWMYSTERE1:22:561:23:205:50 10.3087ve1343560BRAINE-L'ALLEUD
315.4983PIETTE MICHAEL44BEL1:23:051:23:285:51 10.2888ve1344559
316.4847DUMONT JOHAN37BEL1:23:351:23:355:51 10.27119sen345553
317.4931BIARD ERIC52BEL1:23:181:23:365:51 10.2675ve2346555FORGES
318.4251SCOUPPE GERY54BEL1:22:291:23:375:51 10.2676ve2347564BRAINE-L'ALLEUD
319.4228DEVALLEE CLAUDY37BEL1:23:161:23:385:51 10.26120sen349555FROIDCHAPELLE
320.4871VASSART DOMINIQUE54FRAGRAC1:22:341:23:415:52 10.2577ve2350561
321.4098POCHET DIMITRI24BELJC MONTAGNARD1:23:351:23:575:53 10.22121sen351550WALCOURT
322.4953COSTANZO ERASMO33BELBOUFFIOLS1:23:591:23:595:53 10.22122sen352546
323.4923GERMY PASCAL48BELESMESM1:23:421:23:595:53 10.2289ve1353548
324.4951BIERLAIRE NICOLAS39BELBOUFFIOLS1:23:241:24:005:53 10.21123sen354551
325.4939GOBINET PASCAL51FRACSCVHHIRSON1:23:561:24:025:53 10.2178ve2355545
326.614MONFORT JOSE63BELWRC LIERNEUX1:23:451:24:075:53 10.2027ve3356546VIELSALM
327.784BIENFAIT BENJAMIN33BELÉOLIEN1:23:381:24:165:54 10.18124sen357547QUEVY-LE-PETIT
328.4066MAGOTTEAUX HUBERT53BELNAC1:24:111:24:285:55 10.1679ve2359540OBAIX
329.4230LALEAUX CEDRIC43FRALES CHAUFFE LA SEMEL1:23:481:24:305:55 10.1590ve1360544NEUVELLE LES LA CHARITÉ
330.4779COLINET STEPHANE45BEL1:23:341:24:405:56 10.1391ve1361546
331.654KIPS DAVID33BELRCNAMUR1:23:431:24:435:56 10.13125sen362544GEMBLOUX
332.55ROBERTI DE WINGHE MAX61BELLACERONVAU1:24:241:24:465:56 10.1228ve3364536ARCHENNES
333.607TOUSSAINT PATRICK47BELSC BUTGENBACH1:24:411:24:555:57 10.1092ve1365533WAIMES
334.71DE HERTOG DANIEL57BELGRIMAFRIT 71:24:281:24:565:57 10.1080ve2366535GRIMBERGEN
335.197ZYLBERBERG LUC64BELJOGGANS1:24:251:25:005:57 10.1029ve3367535MOLENBEEK
336.4943VERHASSELT MICHEL51BEL1:24:581:25:015:57 10.0981ve2369528
337.4828DELATTRE ARNAUD38BELJT BESONRIEUX1:24:251:25:045:57 10.09126sen370534
338.662NOSSAINT PHILIPPE56BELRCNAMUR1:24:161:25:045:57 10.0982ve2371535ANDENNE
339.4119LAURENT LUC49BELRIWA1:24:391:25:125:58 10.0793ve1372530BIERGES
340.805MATHELART PIERRE56BELANTILOB1:25:051:25:145:58 10.0783ve2373525COURT SAINT ETIENNE
341.4817HENRY PHILIPPE45BELLA THURE1:25:051:25:155:58 10.0794ve1374525
342.4401LOSSEAU CHRISTOPHE31BEL1:24:241:25:195:58 10.06127sen375532MONTIGNY-LE-TILLEUL
343.225JOUAN BERNARD51BEL1:25:271:25:275:59 10.0484ve2376520THYNES
344.4172POLAK ROBBERT53NLD1:24:501:25:386:00 10.0285ve2377526CASTRICUM
345.4877BOMBLED CHRISTOPHE43BEL1:25:101:25:476:00 10.0095ve1379522
346.134GILON MARC53BELRCNAMUR1:25:371:25:506:01 10.0086ve2380517NAMUR
347.4432ANTOINE EDDY43BELGRANNY1:25:061:25:506:01 10.0096ve1381522COUVIN
348.4891FABRE MICHAEL45BELHUY ATHLETIC CLUB1:25:431:25:526:01 9.9997ve1382515
349.4415TERZINI SERAFINO61BELMETTET JC1:25:331:25:546:01 9.9930ve3383516GOUTROUX
350.124LE CHARLIER BAUDOUIN66BEL1:25:311:25:586:01 9.9831ve3384516NAMUR
351.726WILK JANUSZ56BEL1:25:371:26:056:02 9.9787ve2386514UCCLE
352.4225DE MEIJER MAARTEN34NLD1:26:071:26:076:02 9.96128sen387509NIJMEGEN
353.454MAURO CALOGERO76BELSERSER ATHL1:25:511:26:156:02 9.954ve4388511SERAING
354.4793POTY FRANCIS53BELJCHSH1:25:441:26:176:03 9.9488ve2390512
355.4977MAGOTTEAUX ROMAIN26BEL1:25:311:26:206:03 9.94129sen391513
356.4085PARISELLE JACKY62FRAAC FRONTIÈRES1:25:481:26:216:03 9.9432ve3394509
357.4142CULOT CÉDRIC39BELJTRR1:25:471:26:286:03 9.92130sen395509PETIGNY
358.4924NAUTS THIERRY34BEL1:25:311:26:316:03 9.92131sen396511
359.4072PASQUE MICHEL63BELRRT CHÂTELET1:26:131:26:316:03 9.9233ve3397504MARCINELLE
360.4084BEAUGET PATRICK50BELJTRR1:26:321:26:326:04 9.9289ve2398500
361.4438USCHINSKI GONZAGUE31FRA1:25:481:26:346:04 9.91132sen400507LIESSIES
362.4440POULET GÉRARD40FRA1:25:481:26:346:04 9.9198ve1401506LIESSIES
363.4439PARADIS PHILIPPE65FRA1:25:491:26:356:04 9.9134ve3402505LIESSIES
364.4458CHANTEUX ALEXANDRE34BEL1:26:201:26:386:04 9.91133sen403500CERFONTAINE
365.807SCAUT PIERRE31BELJC HSH1:26:181:26:456:04 9.89134sen404500HAM-SUR-HEURE
366.4190HONORE DAVID48BELESMESM1:26:481:26:496:05 9.8899ve1407493GOUTROUX
367.4846MINET LAURENT49BELDEDE'S FOULEES1:26:111:26:566:05 9.87100ve1409499GELBRESSEE
368.100BERTRAND NICOLAS32BELRRTC1:26:471:26:596:05 9.86135sen410492BOIS DE VILLERS
369.4482GANTIEZ CLÉMENT28FRARCNAMUR1:26:421:27:076:06 9.85136sen412492PARIS
370.846POELMANS DOMINIQUE55BELRCNAMUR1:26:411:27:076:06 9.8590ve2413492EVREHAILLES
371.4111SERVAIS GERALD43BELCCSTC1:26:551:27:106:06 9.84101ve1414489CASTILLON
372.514GREVISSE DAVID42BELRONVAU1:26:421:27:126:06 9.84102ve1415491DION VALMONT
373.4944LABY MAXIME22BELJACO1:26:131:27:136:06 9.84137sen417495
374.177HIGUET PIERRE52BELJCCS1:26:451:27:256:07 9.8291ve2418490VONECHE
375.4148VAN CORNEWAL BENOÎT35FRA1:27:261:27:266:07 9.81138sen419482FAMARS
376.4136NOPRE VINCENT44BEL1:27:281:27:286:07 9.81103ve1420481BRUXELLES
377.91GEERAERTS JOS56BELCSFMYSTERE1:27:301:27:306:08 9.8192ve2421481BUIZINGEN
378.4906CECERE SANDRO32BELBOUFFIOLS1:26:561:27:326:08 9.80139sen422486
379.4468CRENLEUX VINCENT46FRA1:27:021:27:326:08 9.80104ve1423485BAILLEUL SIRE BERTHOULT
380.4897SEVERINO THOMAS32BELBOUFFIOLS1:26:561:27:346:08 9.80140sen424485
381.603DAMIEN CLEMENT22BEL1:27:101:27:346:08 9.80141sen425482LOUFTEMONT
382.516HUNIN STEPHANE34BEL1:27:041:27:356:08 9.80142sen426483WOLUWE-SAINT-LAMBERT
383.4114HONORE DENIS41BEL1:27:201:27:386:08 9.79105ve1427480
384.993LELOUP STEPHAN62BEL1:27:201:27:536:09 9.7635ve3430478ROSIERES
385.4404VAN CROMPHAUT JEREMY30BELJACO1:27:061:28:116:10 9.73143sen431481CHIMAY
386.4857CARDINAL MARIUS15BELLES SARTOIS1:27:131:28:136:11 9.737esp434478
387.4812ARDMATARIO VINCENT54BELOTCOTC1:27:481:28:196:11 9.7293ve2436471
388.4870ANGELY OLIVIER28BEL1:27:391:28:196:11 9.72144sen437473WATERLOO
389.161ANGELY GAETAN69BELUSBW1:27:411:28:206:11 9.7236ve3438472WATERLOO
390.4398SPONGA MARTINO38BEL1:28:071:28:206:11 9.71145sen439467WOLUWE SAINT LAMBERT
391.212GALAIS JEAN-MICHEL50BEL1:27:361:28:256:11 9.7194ve2440472LINSMEAU
392.4882MAUDOUX CHRISTIAN53BELLA THURE1:27:491:28:286:12 9.7095ve2441469
393.4958ANSELIN DOMINIQUE46FRA1:27:341:28:326:12 9.69106ve1442471
394.4164LIÉGEOIS PASCAL59BELESM1:28:081:28:416:13 9.6896ve2443465FONTAINE-L'EVÊQUE
395.4969GARCIA JOSE-LOUIS55ESP1:28:211:28:466:13 9.6797ve2444463
396.4866HERMANT PHILIPPE46FRA1:27:531:28:556:14 9.65107ve1446466
397.4210POUSSART MICHAEL42BEL1:27:581:28:576:14 9.65108ve1447465VIRELLES
398.4839CAPORALE JULIEN28BELBOUFFIOLS1:28:251:29:006:14 9.64146sen448460
399.4892SEVERINO JOSEPH36BEL1:28:231:29:016:14 9.64147sen449460
400.755VAN HEULENBERGHE FRANK60BEL1:28:211:29:026:14 9.6437ve3450460GENT
401.4473MICHEL DIMITRI41BELESM1:28:521:29:106:15 9.62109ve1452454GILLY
402.4861DE FRE HANS53BELLASMELMOL1:29:041:29:386:17 9.5798ve2453451
403.820BIENFAIT QUENTIN38BELMSF1:29:501:29:506:17 9.55148sen456442BRAY
404.4241MASSART VICTOR63BELLES BOUFFIOLS1:29:141:29:536:18 9.5538ve3459447COUILET
405.4496LABBE CHRISTIAN66BELRCNAMUR1:29:261:29:536:18 9.5539ve3460445VEDRIN
406.526NORMAND DANIEL55BELJCCS1:29:371:29:576:18 9.5499ve2461443RIENNE
407.4814MABILLE JOEL49BELJCHSHJCHSH1:29:251:30:046:18 9.53110ve1462444
408.411LUYPAERT ARMAND66BELGRIM1:29:441:30:116:19 9.5140ve3464440MEISE
409.4966BORGERS LUDOVIC37BEL1:29:581:30:176:19 9.50149sen466437
410.4460DENAYER VINCENT52BELLA THURE1:29:211:30:186:19 9.50100ve2467443
411.424DRIESSENS PIERRE69BEL1:30:011:30:246:20 9.4941ve3469435SERAING
412.4824LAHR PHILIPPE46FRAJTRR1:29:561:30:246:20 9.49111ve1470436
413.4214NAVAUX PIERRE53BELS'CASSENES RUNNERS1:29:161:30:316:20 9.48101ve2474441MIGNAULT
414.4090FIORITO ANTONIO60BELJACO1:30:051:30:356:21 9.4742ve3476432CHIMAY
415.812BATISTIC PATRICK52BELRONVAU1:29:581:30:376:21 9.47102ve2477433NALINNES
416.992LETHE VINCENT56BELRONVAU1:29:591:30:386:21 9.47103ve2478432TOURINNES-SAINT-LAMBERT
417.4120DOUTRELIGNE HERVÉ56BELRIWARIWA1:30:051:30:406:21 9.46104ve2479431GENVAL
418.4132LOUETTE LAURENT33BEL1:30:451:30:456:21 9.45150sen480424MONTIGNIES SAINT CHRISTOP
419.4912FAFET CEDRIC38FRACA FOURMIES1:30:521:31:016:22 9.43151sen484421
420.4495HARDENNE JOEL50BELRCNAMUR1:30:371:31:036:23 9.42105ve2486422FLAWINNE
421.4260BEDORET VINCENT56BELVALGAU CLERMONT1:30:391:31:046:23 9.42106ve2487422
422.240FONTAINE BERNARD53BELKURISTO1:30:231:31:126:23 9.41107ve2489424BRUXELLES
423.4500AUDEBERT JOHAN41FRAS'CASSENES RUNNERS1:30:281:31:136:23 9.41112ve1490423ECAUSSINNES
424.4896EL HARCHI SAID46BEL1:30:271:31:146:23 9.41113ve1492422
425.286MOTTET CHRISTIAN51BELRCNAMUR1:30:271:31:166:23 9.40108ve2494421SART-BERNARD
426.4874BROQUIN JIMMY45FRA1:30:331:31:236:24 9.39114ve1496419WATIGNY
427.166HOUNJE FREDDY62BEL1:31:421:31:556:26 9.3343ve3497407AUBEL
428.162JONNIAUX PASCAL50BELJC HSH1:31:301:31:586:26 9.33109ve2499408HAM-SUR-HEURE
429.4242VANDEGHINSTE ETIENNE60BELS'CASSENES RUNNERS1:31:191:32:046:27 9.3244ve3500410ECAUSSINNES
430.80ADANS ALAIN54BELMYSTERE1:31:291:32:066:27 9.32110ve2502408COGNELEE
431.4037BASTIEN FRÉDÉRIC40BELQA1:31:201:32:076:27 9.31115ve1503409RANCE
432.924GENICOT PASCAL54BELFOULEES DU PLAISIR1:32:221:32:226:28 9.29111ve2504398HERON
433.4205KRIER FRÉDÉRIC34BEL1:32:161:32:346:29 9.27152sen506398FORGES
434.561HAINAUT CHARLES57BEL1:32:131:32:366:29 9.27112ve2507398GERPINNES
435.4116FERAUCHE JEAN-MARIE67BELUACUAC1:32:261:32:446:30 9.2545ve3509395LES BONS VILLERS
436.4445GOFFIN PASCAL57BELJTRR1:32:221:32:476:30 9.25113ve2510395MARIEMBOURG
437.4970ROUNEAU NICOLAS26BEL1:31:591:32:506:30 9.24153sen511399
438.4258LIMPENS ALAIN60BEL1:32:131:33:006:31 9.2346ve3513396
439.455HENRY RENAUD32BELJCCS1:32:241:33:056:31 9.22154sen515393PONTAURY METTET
440.616NOEL GERARD64BELARCH1:32:221:33:076:31 9.2147ve3516393NATOYE
441.301QUINET JEAN PAUL66BELFLEU1:32:571:33:126:32 9.2148ve3517387GILLY
442.4036LECHIEN CHRISTIAN47BEL1:32:301:33:176:32 9.20116ve1518391GOURDINNE
443.285MUYTJENS RENE71BELANTILOB1:33:031:33:266:32 9.185ve4519385OTTIGNIES
444.4790BRICHART FABRICE42BEL1:33:291:33:476:34 9.15117ve1520381
445.4829MEGGIOTTO GEOFFREY43BEL1:33:211:34:006:35 9.13118ve1521381
446.4396BONNAILLIE PIERRE39BEL1:33:031:34:016:35 9.13155sen522384MARBAIS
447.4827CARDINAL BRUNO43BELLES SARTOIS1:34:081:34:086:35 9.11119ve1524373
448.4068LUTZ JEAN-FRANÇOIS59BEL1:33:431:34:126:36 9.11114ve2525377PHILIPPEVILLE
449.4802MOÏSE PATRICK56BELRCNAMUR1:33:531:34:136:36 9.11115ve2526374JAMBES
450.716HENRICOT ERIC55BELRCNAMUR1:33:251:34:156:36 9.10116ve2528378SAINT MARC
451.4077HOTAT MICHEL47BELJAMES1:33:501:34:156:36 9.10120ve1529374VILLERS-LA-VILLE
452.4203BORGNIET SÉBASTIEN13BELJCPMF EGHEZÉE1:33:251:34:226:36 9.098esp530377EGHEZEE
453.4254SAUVET ARNAUD33BELLA THURE1:33:411:34:386:38 9.07156sen531374
454.4489FONTESSE MICHAEL57BELHAC1:33:491:34:456:38 9.06117ve2532373SOIGNIES
455.4253SOUMOY ALAIN54BELACCO1:33:461:34:506:38 9.05118ve2534372
456.4979LONFILS THIERRY52BEL1:33:491:34:526:39 9.04119ve2535371
457.73VERHOFSTADT CAMILLE71BEL1:34:231:34:556:39 9.046ve4536365MARBAIX-LA-TOUR
458.4994BALLEZ GUY20BEL1:34:241:35:096:40 9.02157sen538365COUVIN
458.4993MASUY HADRIEN20BEL1:34:251:35:096:40 9.02157sen538365
460.4133BINET LOIC31BEL1:34:211:35:136:40 9.01159sen540364HOUR
461.4946BAUDAUX ALAIN52BELJC MONTAGNARD1:34:291:35:246:41 8.99120ve2541362
462.4186GILLES JEAN-PIERRE65BELJC MONTAGNARD1:34:291:35:256:41 8.9949ve3542362MONTIGNY-LE-TILLEUL
463.4461CONGIU JULIEN34FRA1:35:041:35:326:41 8.98160sen544356PRISCHES
464.4914MOUYART PHILIPPE49BELWALCOURWALCOURSE1:34:431:35:326:41 8.98121ve1545359
465.4218VAN CAUWELAERT MICHEL52BELS'CASSENES RUNNERS1:35:051:35:496:42 8.96121ve2548354ECAUSSINNES
466.4103NAGELE PHILIPPE50BEL1:35:511:35:516:43 8.95122ve2549346RANCE
467.771COPET FABIAN44BELWALCOURSE1:35:021:35:516:43 8.95122ve1550354THY-LE-CHATEAU
468.4860LONGUET ALAIN65BEL1:35:121:36:036:43 8.9350ve3553351
469.692ROBERT MICHEL66BELBOUFFIOLS1:35:301:36:076:44 8.9351ve3554348GERPINNES
470.4986GLIBERT BENOIT46BELCOUREUR DE JUPONS1:35:481:36:106:44 8.92123ve1555344
471.4071GERVAISE CHARLY33FRA1:36:031:36:156:44 8.91161sen557341CHARLEVILLE MEZIERES
472.4780MEURRENS YVON62BELBOUFFIOLS1:35:471:36:226:45 8.9152ve3559343
473.831FOULON JEAN-POL60BELESM1:35:451:36:256:45 8.9053ve3560343GILLY
474.4263DUBOIS MATHIEU31BEL1:35:251:36:286:45 8.89162sen561345
475.4876SIRAGUSA SALVATORE43BELNAC1:36:091:36:296:45 8.89124ve1562338ANDERLECHT
476.4078EEMAN JULIEN J34BEL1:35:441:36:376:46 8.88163sen567340MONTIGNIES-SUR-SAMBRE
477.4751SAURA PRATS CHRISTIAN67BEL1:36:401:36:556:47 8.8554ve3570330
478.940MAAS STIJN39BEL1:36:221:37:016:48 8.84164sen571333LAKEN
479.804DUSSART FABRICE53BEL1:36:081:37:016:48 8.84123ve2572334ROCHEFORT
480.4079DROPSY BENJAMIN30BEL1:36:131:37:076:48 8.83165sen575332VERGNIES
481.4080HONNORÉ GIL29BEL1:36:141:37:076:48 8.83166sen576332GERPINNES
482.4853MALCOURANT CLAUDE61BELLES MOTIVES DE METTET1:36:531:37:086:48 8.8355ve3577325
483.4771ROSE CYRILLE44FRACAFCAF1:37:141:37:146:48 8.83125ve1579321FOURMIES
484.648WARGE EDDY47BELOCAN1:36:231:37:226:49 8.81126ve1580329ANDENNE
485.4409DENONCIN MICHEL53BELJCHSHJCHSH1:37:021:37:296:49 8.80124ve2582322HAM-SUR-HEURE
486.4454BARVAUX CHRISTIAN43BEL1:36:311:37:316:50 8.80127ve1583326CHIMAY
487.4259GRINNELL GUY50BELCÉPAL1:36:351:37:326:50 8.80125ve2584325
488.413LIVEMONT EMMANUEL55BELRRTC1:36:441:37:586:52 8.76126ve2588322SUARLEE
489.4202BORGNIET CHRISTOPHE44BELJCPMF EGHEZÉE1:37:031:38:016:52 8.75128ve1589319EGHEZEE
490.4237JASSOGNE CLAUDY62BELRCNAMUR1:37:091:38:066:52 8.7556ve3591317BONINNE
491.4937MURIC DENIS33BEL1:37:341:38:096:52 8.74167sen592313
492.4976DUPUIS GUILLAUME28BEL1:37:431:38:126:52 8.74168sen593311
493.4075VASILE GREGORY39BEL1:37:251:38:146:53 8.74169sen594313FRAIRE
494.4492COLPAERT DIDIER57FRAJOGGING CLUB HARNES1:37:341:38:306:54 8.71127ve2596311COURRIERES
495.4485DELCROIX MICHEL62FRAJOGGING CLUB HARNES1:38:311:38:316:54 8.7157ve3597302HARNES
496.309CHARLIER GUY57BELCSFMYSTERE1:38:031:38:446:55 8.69128ve2598306UCCLE
497.59LIEGEOIS J.LOUIS64BELLACE1:37:481:38:576:56 8.6758ve3601307HEVERLEE
DNF: did not finish; DSQ: disqualified; Speed in km/h
Page: [1] 2